sensor_id;sensor_type;location;lat;lon;timestamp;temperature;humidity
62581;DHT22;48640;48.770;9.148;2022-12-11T00:02:04;0.30;97.30
62581;DHT22;48640;48.770;9.148;2022-12-11T00:04:31;-0.20;96.80
62581;DHT22;48640;48.770;9.148;2022-12-11T00:06:57;-0.10;96.90
62581;DHT22;48640;48.770;9.148;2022-12-11T00:09:24;-0.20;97.20
62581;DHT22;48640;48.770;9.148;2022-12-11T00:11:53;-0.60;97.30
62581;DHT22;48640;48.770;9.148;2022-12-11T00:14:19;-0.10;98.00
62581;DHT22;48640;48.770;9.148;2022-12-11T00:16:47;-0.70;97.50
62581;DHT22;48640;48.770;9.148;2022-12-11T00:19:14;-0.70;97.50
62581;DHT22;48640;48.770;9.148;2022-12-11T00:21:41;-0.50;97.50
62581;DHT22;48640;48.770;9.148;2022-12-11T00:24:08;-0.60;97.20
62581;DHT22;48640;48.770;9.148;2022-12-11T00:26:35;0.00;97.40
62581;DHT22;48640;48.770;9.148;2022-12-11T00:29:03;0.10;97.50
62581;DHT22;48640;48.770;9.148;2022-12-11T00:31:29;-0.50;97.10
62581;DHT22;48640;48.770;9.148;2022-12-11T00:33:56;-0.40;97.00
62581;DHT22;48640;48.770;9.148;2022-12-11T00:36:24;-0.40;97.00
62581;DHT22;48640;48.770;9.148;2022-12-11T00:38:52;0.40;97.40
62581;DHT22;48640;48.770;9.148;2022-12-11T00:41:20;0.50;96.90
62581;DHT22;48640;48.770;9.148;2022-12-11T00:43:47;0.50;96.30
62581;DHT22;48640;48.770;9.148;2022-12-11T00:46:15;0.40;96.10
62581;DHT22;48640;48.770;9.148;2022-12-11T00:48:41;0.60;96.30
62581;DHT22;48640;48.770;9.148;2022-12-11T00:51:09;0.10;95.80
62581;DHT22;48640;48.770;9.148;2022-12-11T00:53:37;0.80;96.30
62581;DHT22;48640;48.770;9.148;2022-12-11T00:56:09;0.30;95.90
62581;DHT22;48640;48.770;9.148;2022-12-11T00:58:37;0.80;96.60
62581;DHT22;48640;48.770;9.148;2022-12-11T01:01:05;0.70;96.60
62581;DHT22;48640;48.770;9.148;2022-12-11T01:03:34;0.40;96.60
62581;DHT22;48640;48.770;9.148;2022-12-11T01:06:01;0.70;96.20
62581;DHT22;48640;48.770;9.148;2022-12-11T01:08:28;0.30;95.80
62581;DHT22;48640;48.770;9.148;2022-12-11T01:11:01;0.40;95.60
62581;DHT22;48640;48.770;9.148;2022-12-11T01:13:26;1.00;96.30
62581;DHT22;48640;48.770;9.148;2022-12-11T01:15:53;0.60;95.60
62581;DHT22;48640;48.770;9.148;2022-12-11T01:18:20;0.70;95.40
62581;DHT22;48640;48.770;9.148;2022-12-11T01:20:48;0.60;95.10
62581;DHT22;48640;48.770;9.148;2022-12-11T01:23:15;1.20;95.40
62581;DHT22;48640;48.770;9.148;2022-12-11T01:25:42;1.30;95.50
62581;DHT22;48640;48.770;9.148;2022-12-11T01:28:10;0.60;95.00
62581;DHT22;48640;48.770;9.148;2022-12-11T01:30:37;0.70;95.00
62581;DHT22;48640;48.770;9.148;2022-12-11T01:33:03;0.80;95.20
62581;DHT22;48640;48.770;9.148;2022-12-11T01:35:30;1.10;95.50
62581;DHT22;48640;48.770;9.148;2022-12-11T01:37:59;0.90;95.20
62581;DHT22;48640;48.770;9.148;2022-12-11T01:40:26;1.20;95.30
62581;DHT22;48640;48.770;9.148;2022-12-11T01:42:52;1.10;95.40
62581;DHT22;48640;48.770;9.148;2022-12-11T01:45:32;0.60;95.30
62581;DHT22;48640;48.770;9.148;2022-12-11T01:48:04;1.10;95.80
62581;DHT22;48640;48.770;9.148;2022-12-11T01:50:35;1.40;95.40
62581;DHT22;48640;48.770;9.148;2022-12-11T01:53:07;0.60;94.60
62581;DHT22;48640;48.770;9.148;2022-12-11T01:55:37;1.10;95.20
62581;DHT22;48640;48.770;9.148;2022-12-11T01:58:05;1.20;95.60
62581;DHT22;48640;48.770;9.148;2022-12-11T02:00:32;1.00;95.20
62581;DHT22;48640;48.770;9.148;2022-12-11T02:02:59;1.40;95.00
62581;DHT22;48640;48.770;9.148;2022-12-11T02:05:26;1.30;94.90
62581;DHT22;48640;48.770;9.148;2022-12-11T02:07:55;0.90;94.90
62581;DHT22;48640;48.770;9.148;2022-12-11T02:10:30;1.30;95.10
62581;DHT22;48640;48.770;9.148;2022-12-11T02:13:06;1.20;94.70
62581;DHT22;48640;48.770;9.148;2022-12-11T02:15:36;1.30;94.70
62581;DHT22;48640;48.770;9.148;2022-12-11T02:18:12;1.30;94.30
62581;DHT22;48640;48.770;9.148;2022-12-11T02:20:44;0.70;94.10
62581;DHT22;48640;48.770;9.148;2022-12-11T02:23:43;1.20;94.20
62581;DHT22;48640;48.770;9.148;2022-12-11T02:26:22;0.90;93.90
62581;DHT22;48640;48.770;9.148;2022-12-11T02:28:54;0.80;94.20
62581;DHT22;48640;48.770;9.148;2022-12-11T02:31:25;0.80;93.20
62581;DHT22;48640;48.770;9.148;2022-12-11T02:33:57;1.30;93.50
62581;DHT22;48640;48.770;9.148;2022-12-11T02:36:29;1.00;93.60
62581;DHT22;48640;48.770;9.148;2022-12-11T02:38:58;0.80;93.60
62581;DHT22;48640;48.770;9.148;2022-12-11T02:41:28;1.40;94.10
62581;DHT22;48640;48.770;9.148;2022-12-11T02:43:57;0.90;93.80
62581;DHT22;48640;48.770;9.148;2022-12-11T02:46:25;1.40;93.90
62581;DHT22;48640;48.770;9.148;2022-12-11T02:48:53;1.60;93.60
62581;DHT22;48640;48.770;9.148;2022-12-11T02:51:23;1.60;93.60
62581;DHT22;48640;48.770;9.148;2022-12-11T02:53:54;1.40;94.10
62581;DHT22;48640;48.770;9.148;2022-12-11T02:56:27;1.00;93.80
62581;DHT22;48640;48.770;9.148;2022-12-11T02:59:00;0.70;94.00
62581;DHT22;48640;48.770;9.148;2022-12-11T03:01:30;1.10;94.80
62581;DHT22;48640;48.770;9.148;2022-12-11T03:03:57;1.00;94.90
62581;DHT22;48640;48.770;9.148;2022-12-11T03:06:28;1.40;95.20
62581;DHT22;48640;48.770;9.148;2022-12-11T03:08:57;0.90;94.20
62581;DHT22;48640;48.770;9.148;2022-12-11T03:11:24;0.70;94.10
62581;DHT22;48640;48.770;9.148;2022-12-11T03:13:51;1.30;94.20
62581;DHT22;48640;48.770;9.148;2022-12-11T03:16:27;1.50;94.30
62581;DHT22;48640;48.770;9.148;2022-12-11T03:19:05;1.40;94.80
62581;DHT22;48640;48.770;9.148;2022-12-11T03:21:37;1.40;94.80
62581;DHT22;48640;48.770;9.148;2022-12-11T03:24:09;1.30;95.10
62581;DHT22;48640;48.770;9.148;2022-12-11T03:26:40;1.60;94.90
62581;DHT22;48640;48.770;9.148;2022-12-11T03:29:13;0.80;94.50
62581;DHT22;48640;48.770;9.148;2022-12-11T03:31:45;0.60;94.90
62581;DHT22;48640;48.770;9.148;2022-12-11T03:34:18;0.70;95.20
62581;DHT22;48640;48.770;9.148;2022-12-11T03:36:46;1.30;95.10
62581;DHT22;48640;48.770;9.148;2022-12-11T03:39:19;1.20;95.40
62581;DHT22;48640;48.770;9.148;2022-12-11T03:41:47;1.30;95.20
62581;DHT22;48640;48.770;9.148;2022-12-11T03:44:17;1.20;95.20
62581;DHT22;48640;48.770;9.148;2022-12-11T03:46:47;1.10;95.10
62581;DHT22;48640;48.770;9.148;2022-12-11T03:49:18;0.90;95.00
62581;DHT22;48640;48.770;9.148;2022-12-11T03:51:47;1.10;95.00
62581;DHT22;48640;48.770;9.148;2022-12-11T03:54:16;1.00;95.10
62581;DHT22;48640;48.770;9.148;2022-12-11T03:56:44;1.10;94.60
62581;DHT22;48640;48.770;9.148;2022-12-11T03:59:12;1.00;94.30
62581;DHT22;48640;48.770;9.148;2022-12-11T04:01:38;1.20;94.40
62581;DHT22;48640;48.770;9.148;2022-12-11T04:04:07;0.90;94.60
62581;DHT22;48640;48.770;9.148;2022-12-11T04:06:33;0.70;94.30
62581;DHT22;48640;48.770;9.148;2022-12-11T04:09:00;0.70;94.10
62581;DHT22;48640;48.770;9.148;2022-12-11T04:11:27;1.00;94.10
62581;DHT22;48640;48.770;9.148;2022-12-11T04:13:59;1.00;93.80
62581;DHT22;48640;48.770;9.148;2022-12-11T04:16:44;1.20;93.90
62581;DHT22;48640;48.770;9.148;2022-12-11T04:19:12;0.50;93.50
62581;DHT22;48640;48.770;9.148;2022-12-11T04:21:56;0.90;93.90
62581;DHT22;48640;48.770;9.148;2022-12-11T04:24:55;0.90;94.00
62581;DHT22;48640;48.770;9.148;2022-12-11T04:27:22;0.90;94.50
62581;DHT22;48640;48.770;9.148;2022-12-11T04:30:10;0.70;94.30
62581;DHT22;48640;48.770;9.148;2022-12-11T04:32:37;0.90;94.70
62581;DHT22;48640;48.770;9.148;2022-12-11T04:35:08;0.90;94.40
62581;DHT22;48640;48.770;9.148;2022-12-11T04:37:35;0.70;94.50
62581;DHT22;48640;48.770;9.148;2022-12-11T04:40:02;0.80;94.20
62581;DHT22;48640;48.770;9.148;2022-12-11T04:42:29;1.10;94.30
62581;DHT22;48640;48.770;9.148;2022-12-11T04:44:56;0.80;94.00
62581;DHT22;48640;48.770;9.148;2022-12-11T04:47:23;0.60;94.10
62581;DHT22;48640;48.770;9.148;2022-12-11T04:49:49;0.70;94.10
62581;DHT22;48640;48.770;9.148;2022-12-11T04:52:18;0.20;94.00
62581;DHT22;48640;48.770;9.148;2022-12-11T04:54:44;0.20;94.00
62581;DHT22;48640;48.770;9.148;2022-12-11T04:57:11;0.70;94.20
62581;DHT22;48640;48.770;9.148;2022-12-11T04:59:38;0.40;93.90
62581;DHT22;48640;48.770;9.148;2022-12-11T05:02:05;0.70;94.10
62581;DHT22;48640;48.770;9.148;2022-12-11T05:04:32;0.90;94.40
62581;DHT22;48640;48.770;9.148;2022-12-11T05:07:00;0.60;94.30
62581;DHT22;48640;48.770;9.148;2022-12-11T05:09:28;0.60;94.20
62581;DHT22;48640;48.770;9.148;2022-12-11T05:11:55;0.30;93.80
62581;DHT22;48640;48.770;9.148;2022-12-11T05:14:21;0.70;94.00
62581;DHT22;48640;48.770;9.148;2022-12-11T05:16:48;0.40;93.80
62581;DHT22;48640;48.770;9.148;2022-12-11T05:19:15;0.90;94.20
62581;DHT22;48640;48.770;9.148;2022-12-11T05:21:42;0.90;93.90
62581;DHT22;48640;48.770;9.148;2022-12-11T05:24:09;0.70;93.80
62581;DHT22;48640;48.770;9.148;2022-12-11T05:26:37;0.90;93.90
62581;DHT22;48640;48.770;9.148;2022-12-11T05:29:04;0.50;94.30
62581;DHT22;48640;48.770;9.148;2022-12-11T05:31:30;0.60;94.30
62581;DHT22;48640;48.770;9.148;2022-12-11T05:33:57;0.70;93.90
62581;DHT22;48640;48.770;9.148;2022-12-11T05:36:26;0.20;93.50
62581;DHT22;48640;48.770;9.148;2022-12-11T05:38:54;0.40;93.80
62581;DHT22;48640;48.770;9.148;2022-12-11T05:41:23;0.30;93.90
62581;DHT22;48640;48.770;9.148;2022-12-11T05:43:51;-0.10;93.60
62581;DHT22;48640;48.770;9.148;2022-12-11T05:46:20;0.00;93.80
62581;DHT22;48640;48.770;9.148;2022-12-11T05:48:49;0.20;94.10
62581;DHT22;48640;48.770;9.148;2022-12-11T05:51:17;-0.40;94.20
62581;DHT22;48640;48.770;9.148;2022-12-11T05:53:47;0.10;94.80
62581;DHT22;48640;48.770;9.148;2022-12-11T05:56:17;-0.10;94.90
62581;DHT22;48640;48.770;9.148;2022-12-11T05:58:45;-0.10;95.30
62581;DHT22;48640;48.770;9.148;2022-12-11T06:01:15;0.10;95.20
62581;DHT22;48640;48.770;9.148;2022-12-11T06:03:42;0.00;95.70
62581;DHT22;48640;48.770;9.148;2022-12-11T06:06:09;-0.30;95.60
62581;DHT22;48640;48.770;9.148;2022-12-11T06:08:37;-0.30;95.70
62581;DHT22;48640;48.770;9.148;2022-12-11T06:11:04;-0.10;96.40
62581;DHT22;48640;48.770;9.148;2022-12-11T06:13:31;-0.30;97.00
62581;DHT22;48640;48.770;9.148;2022-12-11T06:16:05;-0.30;97.10
62581;DHT22;48640;48.770;9.148;2022-12-11T06:18:35;-0.30;96.80
62581;DHT22;48640;48.770;9.148;2022-12-11T06:21:10;0.00;97.30
62581;DHT22;48640;48.770;9.148;2022-12-11T06:23:37;-0.30;96.80
62581;DHT22;48640;48.770;9.148;2022-12-11T06:26:04;-0.30;96.70
62581;DHT22;48640;48.770;9.148;2022-12-11T06:28:31;-0.70;96.70
62581;DHT22;48640;48.770;9.148;2022-12-11T06:30:58;0.00;97.20
62581;DHT22;48640;48.770;9.148;2022-12-11T06:33:25;0.10;97.40
62581;DHT22;48640;48.770;9.148;2022-12-11T06:35:53;-0.10;96.80
62581;DHT22;48640;48.770;9.148;2022-12-11T06:38:20;-0.20;96.80
62581;DHT22;48640;48.770;9.148;2022-12-11T06:40:53;-0.20;96.80
62581;DHT22;48640;48.770;9.148;2022-12-11T06:43:21;-0.10;97.00
62581;DHT22;48640;48.770;9.148;2022-12-11T06:45:48;-0.50;96.70
62581;DHT22;48640;48.770;9.148;2022-12-11T06:48:15;-0.10;96.90
62581;DHT22;48640;48.770;9.148;2022-12-11T06:50:42;-0.10;96.80
62581;DHT22;48640;48.770;9.148;2022-12-11T06:53:11;-0.30;96.60
62581;DHT22;48640;48.770;9.148;2022-12-11T06:55:39;-0.70;96.30
62581;DHT22;48640;48.770;9.148;2022-12-11T06:58:06;-0.10;96.50
62581;DHT22;48640;48.770;9.148;2022-12-11T07:00:34;-0.60;96.10
62581;DHT22;48640;48.770;9.148;2022-12-11T07:03:01;-0.10;96.90
62581;DHT22;48640;48.770;9.148;2022-12-11T07:05:29;-0.20;96.70
62581;DHT22;48640;48.770;9.148;2022-12-11T07:07:56;-0.30;96.40
62581;DHT22;48640;48.770;9.148;2022-12-11T07:10:25;-0.30;96.90
62581;DHT22;48640;48.770;9.148;2022-12-11T07:12:52;-0.40;97.00
62581;DHT22;48640;48.770;9.148;2022-12-11T07:15:19;0.00;96.80
62581;DHT22;48640;48.770;9.148;2022-12-11T07:17:45;-0.10;96.80
62581;DHT22;48640;48.770;9.148;2022-12-11T07:20:12;-0.20;96.80
62581;DHT22;48640;48.770;9.148;2022-12-11T07:22:39;-0.50;96.70
62581;DHT22;48640;48.770;9.148;2022-12-11T07:25:06;-0.40;97.00
62581;DHT22;48640;48.770;9.148;2022-12-11T07:27:35;-0.10;97.00
62581;DHT22;48640;48.770;9.148;2022-12-11T07:30:02;-0.60;96.60
62581;DHT22;48640;48.770;9.148;2022-12-11T07:32:29;-0.10;96.50
62581;DHT22;48640;48.770;9.148;2022-12-11T07:34:56;0.10;96.30
62581;DHT22;48640;48.770;9.148;2022-12-11T07:37:22;0.00;96.00
62581;DHT22;48640;48.770;9.148;2022-12-11T07:39:49;-0.60;95.60
62581;DHT22;48640;48.770;9.148;2022-12-11T07:42:16;0.00;96.00
62581;DHT22;48640;48.770;9.148;2022-12-11T07:44:44;0.00;95.90
62581;DHT22;48640;48.770;9.148;2022-12-11T07:47:11;0.40;96.10
62581;DHT22;48640;48.770;9.148;2022-12-11T07:49:38;0.30;96.00
62581;DHT22;48640;48.770;9.148;2022-12-11T07:52:05;0.40;95.80
62581;DHT22;48640;48.770;9.148;2022-12-11T07:54:31;0.50;95.60
62581;DHT22;48640;48.770;9.148;2022-12-11T07:56:58;0.60;95.70
62581;DHT22;48640;48.770;9.148;2022-12-11T07:59:25;0.00;95.10
62581;DHT22;48640;48.770;9.148;2022-12-11T08:01:54;0.80;95.20
62581;DHT22;48640;48.770;9.148;2022-12-11T08:04:20;0.70;95.00
62581;DHT22;48640;48.770;9.148;2022-12-11T08:06:47;0.90;95.10
62581;DHT22;48640;48.770;9.148;2022-12-11T08:09:14;0.50;94.30
62581;DHT22;48640;48.770;9.148;2022-12-11T08:11:41;1.00;94.50
62581;DHT22;48640;48.770;9.148;2022-12-11T08:14:07;1.00;94.10
62581;DHT22;48640;48.770;9.148;2022-12-11T08:16:34;0.90;93.80
62581;DHT22;48640;48.770;9.148;2022-12-11T08:19:03;0.70;93.80
62581;DHT22;48640;48.770;9.148;2022-12-11T08:21:30;1.30;93.70
62581;DHT22;48640;48.770;9.148;2022-12-11T08:23:57;0.50;92.90
62581;DHT22;48640;48.770;9.148;2022-12-11T08:26:26;0.90;93.30
62581;DHT22;48640;48.770;9.148;2022-12-11T08:28:53;1.30;94.00
62581;DHT22;48640;48.770;9.148;2022-12-11T08:31:20;1.50;93.00
62581;DHT22;48640;48.770;9.148;2022-12-11T08:33:48;1.50;92.40
62581;DHT22;48640;48.770;9.148;2022-12-11T08:36:19;0.90;92.20
62581;DHT22;48640;48.770;9.148;2022-12-11T08:38:46;1.30;92.10
62581;DHT22;48640;48.770;9.148;2022-12-11T08:41:14;1.10;92.60
62581;DHT22;48640;48.770;9.148;2022-12-11T08:43:41;1.30;92.90
62581;DHT22;48640;48.770;9.148;2022-12-11T08:46:08;1.10;93.40
62581;DHT22;48640;48.770;9.148;2022-12-11T08:48:37;0.50;93.60
62581;DHT22;48640;48.770;9.148;2022-12-11T08:51:05;0.40;93.60
62581;DHT22;48640;48.770;9.148;2022-12-11T08:53:33;1.20;93.90
62581;DHT22;48640;48.770;9.148;2022-12-11T08:56:01;0.50;93.20
62581;DHT22;48640;48.770;9.148;2022-12-11T08:58:28;0.60;93.30
62581;DHT22;48640;48.770;9.148;2022-12-11T09:00:55;1.20;93.40
62581;DHT22;48640;48.770;9.148;2022-12-11T09:03:22;0.60;93.30
62581;DHT22;48640;48.770;9.148;2022-12-11T09:05:48;1.10;93.40
62581;DHT22;48640;48.770;9.148;2022-12-11T09:08:15;0.80;93.40
62581;DHT22;48640;48.770;9.148;2022-12-11T09:10:44;1.10;93.10
62581;DHT22;48640;48.770;9.148;2022-12-11T09:13:10;0.90;93.20
62581;DHT22;48640;48.770;9.148;2022-12-11T09:15:39;1.10;93.40
62581;DHT22;48640;48.770;9.148;2022-12-11T09:18:06;0.90;93.00
62581;DHT22;48640;48.770;9.148;2022-12-11T09:20:33;1.00;92.60
62581;DHT22;48640;48.770;9.148;2022-12-11T09:23:00;1.50;92.90
62581;DHT22;48640;48.770;9.148;2022-12-11T09:25:27;1.70;92.50
62581;DHT22;48640;48.770;9.148;2022-12-11T09:27:55;1.90;92.20
62581;DHT22;48640;48.770;9.148;2022-12-11T09:30:22;1.50;91.80
62581;DHT22;48640;48.770;9.148;2022-12-11T09:32:49;2.40;91.60
62581;DHT22;48640;48.770;9.148;2022-12-11T09:35:16;2.60;91.70
62581;DHT22;48640;48.770;9.148;2022-12-11T09:37:42;2.50;91.30
62581;DHT22;48640;48.770;9.148;2022-12-11T09:40:10;2.90;90.80
62581;DHT22;48640;48.770;9.148;2022-12-11T09:42:47;2.70;90.20
62581;DHT22;48640;48.770;9.148;2022-12-11T09:45:17;3.00;89.60
62581;DHT22;48640;48.770;9.148;2022-12-11T09:47:45;3.00;88.70
62581;DHT22;48640;48.770;9.148;2022-12-11T09:50:19;2.50;89.50
62581;DHT22;48640;48.770;9.148;2022-12-11T09:52:56;2.10;89.60
62581;DHT22;48640;48.770;9.148;2022-12-11T09:55:29;2.80;89.00
62581;DHT22;48640;48.770;9.148;2022-12-11T09:58:02;3.00;89.40
62581;DHT22;48640;48.770;9.148;2022-12-11T10:00:38;3.30;87.70
62581;DHT22;48640;48.770;9.148;2022-12-11T10:03:29;3.10;86.20
62581;DHT22;48640;48.770;9.148;2022-12-11T10:06:03;3.00;86.70
62581;DHT22;48640;48.770;9.148;2022-12-11T10:08:37;2.40;85.90
62581;DHT22;48640;48.770;9.148;2022-12-11T10:11:21;2.80;87.40
62581;DHT22;48640;48.770;9.148;2022-12-11T10:13:57;2.30;87.40
62581;DHT22;48640;48.770;9.148;2022-12-11T10:16:34;2.30;89.00
62581;DHT22;48640;48.770;9.148;2022-12-11T10:19:01;2.30;89.40
62581;DHT22;48640;48.770;9.148;2022-12-11T10:21:35;1.90;89.80
62581;DHT22;48640;48.770;9.148;2022-12-11T10:24:08;2.40;90.50
62581;DHT22;48640;48.770;9.148;2022-12-11T10:26:38;2.30;90.40
62581;DHT22;48640;48.770;9.148;2022-12-11T10:29:05;2.80;90.30
62581;DHT22;48640;48.770;9.148;2022-12-11T10:31:43;2.70;89.20
62581;DHT22;48640;48.770;9.148;2022-12-11T10:34:15;2.90;89.70
62581;DHT22;48640;48.770;9.148;2022-12-11T10:36:46;2.30;88.60
62581;DHT22;48640;48.770;9.148;2022-12-11T10:39:14;1.80;88.50
62581;DHT22;48640;48.770;9.148;2022-12-11T10:41:43;2.40;90.30
62581;DHT22;48640;48.770;9.148;2022-12-11T10:44:15;2.50;90.30
62581;DHT22;48640;48.770;9.148;2022-12-11T10:46:44;2.70;89.80
62581;DHT22;48640;48.770;9.148;2022-12-11T10:49:21;2.70;89.10
62581;DHT22;48640;48.770;9.148;2022-12-11T10:51:49;2.20;88.20
62581;DHT22;48640;48.770;9.148;2022-12-11T10:54:28;1.80;88.10
62581;DHT22;48640;48.770;9.148;2022-12-11T10:56:56;1.90;90.60
62581;DHT22;48640;48.770;9.148;2022-12-11T10:59:29;1.40;90.90
62581;DHT22;48640;48.770;9.148;2022-12-11T11:01:59;1.50;91.50
62581;DHT22;48640;48.770;9.148;2022-12-11T11:04:29;1.00;92.40
62581;DHT22;48640;48.770;9.148;2022-12-11T11:07:09;1.40;92.90
62581;DHT22;48640;48.770;9.148;2022-12-11T11:09:37;1.10;93.00
62581;DHT22;48640;48.770;9.148;2022-12-11T11:12:17;1.70;93.60
62581;DHT22;48640;48.770;9.148;2022-12-11T11:14:44;2.10;93.70
62581;DHT22;48640;48.770;9.148;2022-12-11T11:17:15;1.80;92.80
62581;DHT22;48640;48.770;9.148;2022-12-11T11:19:46;1.60;92.60
62581;DHT22;48640;48.770;9.148;2022-12-11T11:22:15;1.90;92.90
62581;DHT22;48640;48.770;9.148;2022-12-11T11:24:44;1.40;93.40
62581;DHT22;48640;48.770;9.148;2022-12-11T11:27:26;2.10;93.10
62581;DHT22;48640;48.770;9.148;2022-12-11T11:29:54;2.70;92.80
62581;DHT22;48640;48.770;9.148;2022-12-11T11:32:27;2.70;91.40
62581;DHT22;48640;48.770;9.148;2022-12-11T11:35:09;2.80;90.40
62581;DHT22;48640;48.770;9.148;2022-12-11T11:37:44;3.20;90.80
62581;DHT22;48640;48.770;9.148;2022-12-11T11:40:16;2.80;89.70
62581;DHT22;48640;48.770;9.148;2022-12-11T11:42:48;2.80;90.20
62581;DHT22;48640;48.770;9.148;2022-12-11T11:45:19;3.50;90.50
62581;DHT22;48640;48.770;9.148;2022-12-11T11:47:57;3.50;90.70
62581;DHT22;48640;48.770;9.148;2022-12-11T11:50:28;3.40;91.00
62581;DHT22;48640;48.770;9.148;2022-12-11T11:53:02;2.90;91.40
62581;DHT22;48640;48.770;9.148;2022-12-11T11:55:38;1.90;91.40
62581;DHT22;48640;48.770;9.148;2022-12-11T11:58:12;2.10;92.10
62581;DHT22;48640;48.770;9.148;2022-12-11T12:00:40;2.00;93.20
62581;DHT22;48640;48.770;9.148;2022-12-11T12:03:11;2.30;93.30
62581;DHT22;48640;48.770;9.148;2022-12-11T12:05:44;2.50;93.40
62581;DHT22;48640;48.770;9.148;2022-12-11T12:08:16;2.30;93.30
62581;DHT22;48640;48.770;9.148;2022-12-11T12:10:51;2.30;93.60
62581;DHT22;48640;48.770;9.148;2022-12-11T12:13:28;2.40;93.40
62581;DHT22;48640;48.770;9.148;2022-12-11T12:15:59;2.30;93.30
62581;DHT22;48640;48.770;9.148;2022-12-11T12:18:36;2.40;93.00
62581;DHT22;48640;48.770;9.148;2022-12-11T12:21:14;2.60;93.30
62581;DHT22;48640;48.770;9.148;2022-12-11T12:23:54;2.80;92.40
62581;DHT22;48640;48.770;9.148;2022-12-11T12:26:27;2.40;91.80
62581;DHT22;48640;48.770;9.148;2022-12-11T12:29:04;2.20;91.80
62581;DHT22;48640;48.770;9.148;2022-12-11T12:31:47;2.20;92.70
62581;DHT22;48640;48.770;9.148;2022-12-11T12:34:24;2.70;94.10
62581;DHT22;48640;48.770;9.148;2022-12-11T12:37:00;2.20;93.40
62581;DHT22;48640;48.770;9.148;2022-12-11T12:39:38;2.00;94.70
62581;DHT22;48640;48.770;9.148;2022-12-11T12:42:13;2.10;95.00
62581;DHT22;48640;48.770;9.148;2022-12-11T12:44:52;2.20;95.80
62581;DHT22;48640;48.770;9.148;2022-12-11T12:47:20;1.90;95.00
62581;DHT22;48640;48.770;9.148;2022-12-11T12:49:50;2.40;94.80
62581;DHT22;48640;48.770;9.148;2022-12-11T12:52:21;2.60;94.90
62581;DHT22;48640;48.770;9.148;2022-12-11T12:54:53;2.40;94.20
62581;DHT22;48640;48.770;9.148;2022-12-11T12:57:43;2.50;94.50
62581;DHT22;48640;48.770;9.148;2022-12-11T13:00:11;2.00;94.20
62581;DHT22;48640;48.770;9.148;2022-12-11T13:02:46;1.90;94.60
62581;DHT22;48640;48.770;9.148;2022-12-11T13:05:21;2.10;95.00
62581;DHT22;48640;48.770;9.148;2022-12-11T13:07:49;2.30;95.00
62581;DHT22;48640;48.770;9.148;2022-12-11T13:10:27;1.50;94.80
62581;DHT22;48640;48.770;9.148;2022-12-11T13:12:56;1.90;96.40
62581;DHT22;48640;48.770;9.148;2022-12-11T13:15:29;2.00;96.80
62581;DHT22;48640;48.770;9.148;2022-12-11T13:17:57;2.50;96.60
62581;DHT22;48640;48.770;9.148;2022-12-11T13:20:27;2.00;95.40
62581;DHT22;48640;48.770;9.148;2022-12-11T13:23:07;1.20;95.70
62581;DHT22;48640;48.770;9.148;2022-12-11T13:25:44;1.00;96.90
62581;DHT22;48640;48.770;9.148;2022-12-11T13:28:30;1.00;97.80
62581;DHT22;48640;48.770;9.148;2022-12-11T13:34:15;1.30;99.00
62581;DHT22;48640;48.770;9.148;2022-12-11T13:36:48;1.30;98.30
62581;DHT22;48640;48.770;9.148;2022-12-11T13:39:17;1.30;98.20
62581;DHT22;48640;48.770;9.148;2022-12-11T13:41:46;1.30;98.40
62581;DHT22;48640;48.770;9.148;2022-12-11T13:44:18;1.60;97.90
62581;DHT22;48640;48.770;9.148;2022-12-11T13:46:48;1.50;97.30
62581;DHT22;48640;48.770;9.148;2022-12-11T13:49:20;1.70;97.50
62581;DHT22;48640;48.770;9.148;2022-12-11T13:51:54;1.10;97.00
62581;DHT22;48640;48.770;9.148;2022-12-11T13:54:21;1.10;97.50
62581;DHT22;48640;48.770;9.148;2022-12-11T13:56:56;0.50;97.70
62581;DHT22;48640;48.770;9.148;2022-12-11T13:59:28;1.20;98.90
62581;DHT22;48640;48.770;9.148;2022-12-11T14:01:59;1.30;98.50
62581;DHT22;48640;48.770;9.148;2022-12-11T14:04:26;1.40;97.70
62581;DHT22;48640;48.770;9.148;2022-12-11T14:06:56;1.60;97.10
62581;DHT22;48640;48.770;9.148;2022-12-11T14:09:25;0.80;96.70
62581;DHT22;48640;48.770;9.148;2022-12-11T14:11:53;1.40;97.00
62581;DHT22;48640;48.770;9.148;2022-12-11T14:14:26;1.60;97.20
62581;DHT22;48640;48.770;9.148;2022-12-11T14:16:54;1.50;97.40
62581;DHT22;48640;48.770;9.148;2022-12-11T14:19:22;1.30;97.20
62581;DHT22;48640;48.770;9.148;2022-12-11T14:21:58;1.00;96.40
62581;DHT22;48640;48.770;9.148;2022-12-11T14:24:27;0.30;96.40
62581;DHT22;48640;48.770;9.148;2022-12-11T14:26:55;0.40;96.90
62581;DHT22;48640;48.770;9.148;2022-12-11T14:29:27;0.90;97.80
62581;DHT22;48640;48.770;9.148;2022-12-11T14:31:57;0.90;97.70
62581;DHT22;48640;48.770;9.148;2022-12-11T14:34:28;1.00;97.40
62581;DHT22;48640;48.770;9.148;2022-12-11T14:36:58;0.60;97.20
62581;DHT22;48640;48.770;9.148;2022-12-11T14:39:28;0.60;97.10
62581;DHT22;48640;48.770;9.148;2022-12-11T14:42:01;1.10;97.00
62581;DHT22;48640;48.770;9.148;2022-12-11T14:44:32;1.10;96.60
62581;DHT22;48640;48.770;9.148;2022-12-11T14:47:02;1.30;96.50
62581;DHT22;48640;48.770;9.148;2022-12-11T14:49:36;1.40;96.40
62581;DHT22;48640;48.770;9.148;2022-12-11T14:52:11;1.30;96.30
62581;DHT22;48640;48.770;9.148;2022-12-11T14:54:42;1.60;96.40
62581;DHT22;48640;48.770;9.148;2022-12-11T14:57:15;1.70;96.30
62581;DHT22;48640;48.770;9.148;2022-12-11T14:59:45;1.10;95.10
62581;DHT22;48640;48.770;9.148;2022-12-11T15:02:24;1.60;95.50
62581;DHT22;48640;48.770;9.148;2022-12-11T15:05:14;1.60;95.90
62581;DHT22;48640;48.770;9.148;2022-12-11T15:07:53;1.60;95.80
62581;DHT22;48640;48.770;9.148;2022-12-11T15:10:23;1.40;95.60
62581;DHT22;48640;48.770;9.148;2022-12-11T15:12:50;0.80;95.20
62581;DHT22;48640;48.770;9.148;2022-12-11T15:15:17;1.30;96.00
62581;DHT22;48640;48.770;9.148;2022-12-11T15:17:45;1.00;95.60
62581;DHT22;48640;48.770;9.148;2022-12-11T15:20:23;0.80;95.90
62581;DHT22;48640;48.770;9.148;2022-12-11T15:22:53;0.90;95.80
62581;DHT22;48640;48.770;9.148;2022-12-11T15:25:24;0.00;95.80
62581;DHT22;48640;48.770;9.148;2022-12-11T15:27:53;0.10;96.10
62581;DHT22;48640;48.770;9.148;2022-12-11T15:30:32;0.80;96.50
62581;DHT22;48640;48.770;9.148;2022-12-11T15:33:19;0.80;97.00
62581;DHT22;48640;48.770;9.148;2022-12-11T15:35:58;1.00;96.40
62581;DHT22;48640;48.770;9.148;2022-12-11T15:38:44;0.40;96.00
62581;DHT22;48640;48.770;9.148;2022-12-11T15:41:13;0.40;95.80
62581;DHT22;48640;48.770;9.148;2022-12-11T15:43:41;0.60;96.00
62581;DHT22;48640;48.770;9.148;2022-12-11T15:46:09;1.20;96.30
62581;DHT22;48640;48.770;9.148;2022-12-11T15:48:36;0.70;96.00
62581;DHT22;48640;48.770;9.148;2022-12-11T15:51:02;1.40;95.90
62581;DHT22;48640;48.770;9.148;2022-12-11T15:53:29;1.50;96.10
62581;DHT22;48640;48.770;9.148;2022-12-11T15:55:58;2.00;95.80
62581;DHT22;48640;48.770;9.148;2022-12-11T15:58:25;1.00;95.00
62581;DHT22;48640;48.770;9.148;2022-12-11T16:00:53;1.80;95.30
62581;DHT22;48640;48.770;9.148;2022-12-11T16:03:21;1.20;94.90
62581;DHT22;48640;48.770;9.148;2022-12-11T16:05:48;1.20;95.00
62581;DHT22;48640;48.770;9.148;2022-12-11T16:08:17;1.60;94.70